createdAt,value
2018-04-02T00:01:28.439Z,100663.26
2018-04-02T00:03:56.090Z,100666.21
2018-04-02T00:06:23.698Z,100662.94
2018-04-02T00:08:51.396Z,100656.25
2018-04-02T00:11:18.951Z,100658.38
2018-04-02T00:13:46.609Z,100647.47
2018-04-02T00:16:14.199Z,100651.37
2018-04-02T00:18:41.969Z,100646.22
2018-04-02T00:21:09.571Z,100645.47
2018-04-02T00:23:37.298Z,100643.03
2018-04-02T00:26:04.920Z,100643.63
2018-04-02T00:28:32.633Z,100641.72
2018-04-02T00:31:00.271Z,100641.35
2018-04-02T00:33:27.987Z,100639.21
2018-04-02T00:35:55.566Z,100639.81
2018-04-02T00:38:23.203Z,100634.91
2018-04-02T00:40:50.791Z,100636.36
2018-04-02T00:43:18.521Z,100633.51
2018-04-02T00:45:46.122Z,100628.89
2018-04-02T00:48:13.718Z,100625.91
2018-04-02T00:50:41.364Z,100622.11
2018-04-02T00:53:09.000Z,100623.09
2018-04-02T00:55:36.631Z,100623.91
2018-04-02T00:58:04.243Z,100615.73
2018-04-02T01:00:31.883Z,100619.84
2018-04-02T01:02:59.488Z,100610.28
2018-04-02T01:05:27.134Z,100611.62
2018-04-02T01:07:54.740Z,100607.14
2018-04-02T01:10:22.433Z,100608.91
2018-04-02T01:12:50.067Z,100605.83
2018-04-02T01:15:17.694Z,100604.20
2018-04-02T01:17:45.306Z,100600.75
2018-04-02T01:20:12.928Z,100604.77
2018-04-02T01:22:40.531Z,100598.89
2018-04-02T01:25:08.182Z,100594.62
2018-04-02T01:27:35.765Z,100591.64
2018-04-02T01:30:03.414Z,100591.86
2018-04-02T01:32:31.001Z,100590.66
2018-04-02T01:34:58.667Z,100583.08
2018-04-02T01:37:26.311Z,100586.61
2018-04-02T01:39:53.962Z,100580.57
2018-04-02T01:42:21.593Z,100575.44
2018-04-02T01:44:49.190Z,100570.99
2018-04-02T01:47:16.809Z,100572.81
2018-04-02T01:49:44.543Z,100582.56
2018-04-02T01:52:12.174Z,100578.11
2018-04-02T01:54:39.787Z,100578.50
2018-04-02T01:57:07.423Z,100572.73
2018-04-02T01:59:35.046Z,100573.38
2018-04-02T02:02:02.725Z,100571.14
2018-04-02T02:04:30.322Z,100562.11
2018-04-02T02:06:57.941Z,100562.41
2018-04-02T02:09:25.551Z,100555.92
2018-04-02T02:11:53.182Z,100554.16
2018-04-02T02:14:20.795Z,100555.73
2018-04-02T02:16:48.480Z,100547.95
2018-04-02T02:19:16.082Z,100552.57
2018-04-02T02:21:43.727Z,100546.91
2018-04-02T02:24:11.314Z,100548.89
2018-04-02T02:26:38.906Z,100539.91
2018-04-02T02:29:06.534Z,100540.02
2018-04-02T02:31:34.228Z,100537.33
2018-04-02T02:34:01.864Z,100535.30
2018-04-02T02:36:29.491Z,100541.80
2018-04-02T02:38:57.118Z,100531.53
2018-04-02T02:41:24.722Z,100526.21
2018-04-02T02:43:52.398Z,100522.03
2018-04-02T02:46:19.990Z,100523.42
2018-04-02T02:48:47.619Z,100522.09
2018-04-02T02:51:15.210Z,100524.87
2018-04-02T02:53:42.859Z,100528.34
2018-04-02T02:56:10.437Z,100520.03
2018-04-02T02:58:38.068Z,100518.77
2018-04-02T03:01:05.685Z,100518.86
2018-04-02T03:03:33.372Z,100516.86
2018-04-02T03:06:00.973Z,100512.90
2018-04-02T03:08:28.611Z,100503.36
2018-04-02T03:10:56.272Z,100507.36
2018-04-02T03:13:23.918Z,100507.84
2018-04-02T03:15:51.515Z,100505.20
2018-04-02T03:18:19.113Z,100502.49
2018-04-02T03:20:46.754Z,100498.50
2018-04-02T03:23:14.358Z,100490.77
2018-04-02T03:25:41.991Z,100489.25
2018-04-02T03:28:09.596Z,100488.57
2018-04-02T03:30:37.243Z,100492.27
2018-04-02T03:33:04.846Z,100492.14
2018-04-02T03:35:32.508Z,100490.33
2018-04-02T03:38:00.127Z,100484.48
2018-04-02T03:40:27.767Z,100485.20
2018-04-02T03:42:55.370Z,100480.63
2018-04-02T03:45:23.044Z,100481.60
2018-04-02T03:47:50.634Z,100471.14
2018-04-02T03:50:18.281Z,100466.38
2018-04-02T03:52:45.900Z,100463.07
2018-04-02T03:55:13.532Z,100470.35
2018-04-02T03:57:41.123Z,100465.48
2018-04-02T04:00:08.762Z,100464.33
2018-04-02T04:02:36.363Z,100465.11
2018-04-02T04:05:04.029Z,100462.56
2018-04-02T04:07:31.681Z,100465.05
2018-04-02T04:09:59.314Z,100454.33
2018-04-02T04:12:26.955Z,100459.31
2018-04-02T04:14:54.573Z,100456.48
2018-04-02T04:17:22.320Z,100458.91
2018-04-02T04:19:49.927Z,100456.61
2018-04-02T04:22:17.572Z,100453.59
2018-04-02T04:24:45.168Z,100457.70
2018-04-02T04:27:12.790Z,100451.00
2018-04-02T04:29:40.394Z,100446.17
2018-04-02T04:32:08.050Z,100445.67
2018-04-02T04:34:35.638Z,100446.30
2018-04-02T04:37:03.304Z,100443.53
2018-04-02T04:39:30.903Z,100438.50
2018-04-02T04:41:58.562Z,100444.66
2018-04-02T04:44:26.218Z,100439.64
2018-04-02T04:46:53.858Z,100439.84
2018-04-02T04:49:21.471Z,100441.57
2018-04-02T04:51:49.120Z,100437.41
2018-04-02T04:54:16.715Z,100433.42
2018-04-02T04:56:44.431Z,100435.55
2018-04-02T04:59:12.063Z,100429.56
2018-04-02T05:01:39.691Z,100434.05
2018-04-02T05:04:07.344Z,100424.98
2018-04-02T05:06:34.941Z,100427.31
2018-04-02T05:09:02.595Z,100425.88
2018-04-02T05:11:30.198Z,100422.34
2018-04-02T05:13:57.835Z,100421.45
2018-04-02T05:16:25.439Z,100422.63
2018-04-02T05:18:53.066Z,100415.70
2018-04-02T05:21:20.667Z,100414.25
2018-04-02T05:23:48.397Z,100423.84
2018-04-02T05:26:16.019Z,100418.28
2018-04-02T05:28:43.658Z,100418.36
2018-04-02T05:31:11.272Z,100416.59
2018-04-02T05:33:38.899Z,100414.42
2018-04-02T05:36:06.487Z,100406.78
2018-04-02T05:38:34.134Z,100411.24
2018-04-02T05:41:02.218Z,100404.78
2018-04-02T05:43:29.906Z,100407.66
2018-04-02T05:45:57.495Z,100403.88
2018-04-02T05:48:25.094Z,100404.47
2018-04-02T05:50:52.962Z,100396.67
2018-04-02T05:53:20.607Z,100397.71
2018-04-02T05:55:48.227Z,100403.98
2018-04-02T05:58:15.860Z,100404.11
2018-04-02T06:00:43.502Z,100401.39
2018-04-02T06:03:11.095Z,100399.93
2018-04-02T06:05:38.746Z,100391.62
2018-04-02T06:08:06.353Z,100389.73
2018-04-02T06:10:34.016Z,100389.56
2018-04-02T06:13:01.580Z,100389.77
2018-04-02T06:15:29.218Z,100387.19
2018-04-02T06:17:56.833Z,100389.70
2018-04-02T06:20:24.529Z,100388.52
2018-04-02T06:22:52.188Z,100384.10
2018-04-02T06:25:19.882Z,100374.33
2018-04-02T06:27:47.490Z,100380.55
2018-04-02T06:30:15.210Z,100375.41
2018-04-02T06:32:42.823Z,100378.00
2018-04-02T06:35:10.479Z,100383.60
2018-04-02T06:37:38.171Z,100373.45
2018-04-02T06:40:05.758Z,100372.64
2018-04-02T06:42:33.395Z,100367.93
2018-04-02T06:45:00.983Z,100371.60
2018-04-02T06:47:28.779Z,100374.67
2018-04-02T06:49:56.472Z,100371.82
2018-04-02T06:52:24.114Z,100375.20
2018-04-02T06:54:51.710Z,100373.30
2018-04-02T06:57:19.334Z,100364.52
2018-04-02T06:59:46.937Z,100361.59
2018-04-02T07:02:14.714Z,100364.62
2018-04-02T07:04:42.331Z,100367.27
2018-04-02T07:07:09.962Z,100361.61
2018-04-02T07:09:37.579Z,100356.59
2018-04-02T07:12:05.278Z,100356.14
2018-04-02T07:14:32.900Z,100359.73
2018-04-02T07:17:00.527Z,100361.43
2018-04-02T07:19:28.117Z,100354.58
2018-04-02T07:21:55.766Z,100348.42
2018-04-02T07:24:23.552Z,100341.86
2018-04-02T07:26:51.140Z,100344.27
2018-04-02T07:29:18.777Z,100343.69
2018-04-02T07:31:46.377Z,100339.73
2018-04-02T07:34:14.016Z,100343.26
2018-04-02T07:36:41.627Z,100339.84
2018-04-02T07:39:09.273Z,100337.42
2018-04-02T07:41:36.869Z,100331.25
2018-04-02T07:44:04.497Z,100326.55
2018-04-02T07:46:32.117Z,100324.87
2018-04-02T07:48:59.849Z,100323.41
2018-04-02T07:51:27.556Z,100327.34
2018-04-02T07:53:55.226Z,100317.02
2018-04-02T07:56:22.833Z,100325.48
2018-04-02T07:58:50.469Z,100304.81
2018-04-02T08:01:18.184Z,100311.28
2018-04-02T08:03:45.855Z,100318.38
2018-04-02T08:06:13.489Z,100316.03
2018-04-02T08:08:41.204Z,100323.80
2018-04-02T08:11:08.752Z,100319.33
2018-04-02T08:13:36.444Z,100319.47
2018-04-02T08:16:04.074Z,100318.45
2018-04-02T08:18:31.680Z,100324.63
2018-04-02T08:20:59.315Z,100315.05
2018-04-02T08:23:26.903Z,100310.02
2018-04-02T08:25:54.576Z,100310.58
2018-04-02T08:28:22.207Z,100305.59
2018-04-02T08:30:49.815Z,100303.40
2018-04-02T08:33:17.410Z,100301.31
2018-04-02T08:35:45.063Z,100300.69
2018-04-02T08:38:12.716Z,100294.63
2018-04-02T08:40:40.498Z,100288.73
2018-04-02T08:43:08.175Z,100288.75
2018-04-02T08:45:35.776Z,100290.83
2018-04-02T08:48:03.411Z,100276.58
2018-04-02T08:50:31.004Z,100272.73
2018-04-02T08:52:58.668Z,100273.71
2018-04-02T08:55:26.265Z,100279.05
2018-04-02T08:57:53.930Z,100279.09
2018-04-02T09:00:21.514Z,100276.44
2018-04-02T09:02:49.233Z,100269.77
2018-04-02T09:05:16.876Z,100278.19
2018-04-02T09:07:44.505Z,100277.45
2018-04-02T09:10:12.114Z,100272.91
2018-04-02T09:12:39.759Z,100269.09
2018-04-02T09:15:07.358Z,100271.06
2018-04-02T09:17:34.999Z,100276.19
2018-04-02T09:20:02.594Z,100263.52
2018-04-02T09:22:30.222Z,100257.39
2018-04-02T09:24:57.850Z,100253.86
2018-04-02T09:27:25.666Z,100252.39
2018-04-02T09:29:53.293Z,100249.74
2018-04-02T09:32:20.897Z,100246.33
2018-04-02T09:34:48.569Z,100244.88
2018-04-02T09:37:16.255Z,100243.01
2018-04-02T09:39:43.902Z,100234.06
2018-04-02T09:42:11.523Z,100226.02
2018-04-02T09:44:39.169Z,100218.56
2018-04-02T09:47:06.781Z,100220.81
2018-04-02T09:49:34.430Z,100213.04
2018-04-02T09:52:02.059Z,100208.23
2018-04-02T09:54:29.695Z,100200.72
2018-04-02T09:56:57.316Z,100197.22
2018-04-02T09:59:25.122Z,100190.02
2018-04-02T10:01:55.314Z,100187.62
2018-04-02T10:04:28.346Z,100183.45
2018-04-02T10:06:55.992Z,100179.80
2018-04-02T10:09:23.659Z,100179.94
2018-04-02T10:11:51.269Z,100175.73
2018-04-02T10:14:18.934Z,100172.98
2018-04-02T10:16:46.570Z,100164.64
2018-04-02T10:19:14.238Z,100160.45
2018-04-02T10:21:41.862Z,100154.96
2018-04-02T10:24:09.554Z,100153.05
2018-04-02T10:26:37.179Z,100148.17
2018-04-02T10:29:04.791Z,100158.25
2018-04-02T10:31:32.505Z,100150.62
2018-04-02T10:34:00.122Z,100136.82
2018-04-02T10:36:27.767Z,100131.45
2018-04-02T10:38:55.365Z,100126.17
2018-04-02T10:41:23.020Z,100126.88
2018-04-02T10:43:50.689Z,100119.88
2018-04-02T10:46:18.398Z,100123.73
2018-04-02T10:48:46.042Z,100117.52
2018-04-02T10:51:13.672Z,100112.23
2018-04-02T10:53:41.293Z,100100.15
2018-04-02T10:56:08.967Z,100097.03
2018-04-02T10:58:36.691Z,100096.75
2018-04-02T11:01:04.385Z,100093.93
2018-04-02T11:03:31.996Z,100085.66
2018-04-02T11:05:59.612Z,100090.59
2018-04-02T11:08:27.262Z,100080.52
2018-04-02T11:10:54.892Z,100083.23
2018-04-02T11:13:22.554Z,100090.42
2018-04-02T11:15:50.170Z,100084.19
2018-04-02T11:18:17.818Z,100076.13
2018-04-02T11:20:45.477Z,100077.04
2018-04-02T11:23:13.147Z,100079.08
2018-04-02T11:25:40.794Z,100066.98
2018-04-02T11:28:08.458Z,100056.66
2018-04-02T11:30:36.098Z,100060.39
2018-04-02T11:33:03.990Z,100054.34
2018-04-02T11:35:31.608Z,100053.27
2018-04-02T11:37:59.287Z,100062.58
2018-04-02T11:40:26.930Z,100048.59
2018-04-02T11:42:54.637Z,100046.43
2018-04-02T11:45:22.198Z,100040.48
2018-04-02T11:47:49.876Z,100040.86
2018-04-02T11:50:17.438Z,100046.75
2018-04-02T11:52:45.111Z,100031.38
2018-04-02T11:55:12.769Z,100031.61
2018-04-02T11:57:40.381Z,100022.38
2018-04-02T12:00:08.050Z,100018.93
2018-04-02T12:02:35.652Z,100015.92
2018-04-02T12:05:03.396Z,100018.52
2018-04-02T12:07:31.005Z,100008.19
2018-04-02T12:09:58.637Z,100001.81
2018-04-02T12:12:26.273Z,99995.42
2018-04-02T12:14:53.933Z,99987.05
2018-04-02T12:17:21.542Z,99994.34
2018-04-02T12:19:49.196Z,99985.69
2018-04-02T12:22:16.826Z,99989.25
2018-04-02T12:24:44.455Z,99989.75
2018-04-02T12:27:12.068Z,99989.92
2018-04-02T12:29:39.694Z,99986.57
2018-04-02T12:32:07.310Z,99972.41
2018-04-02T12:34:34.967Z,99960.83
2018-04-02T12:37:02.585Z,99956.39
2018-04-02T12:39:30.375Z,99966.66
2018-04-02T12:41:57.968Z,99960.95
2018-04-02T12:44:25.592Z,99959.17
2018-04-02T12:46:53.257Z,99961.45
2018-04-02T12:49:20.899Z,99951.23
2018-04-02T12:51:48.534Z,99951.98
2018-04-02T12:54:16.155Z,99946.58
2018-04-02T12:56:43.875Z,99939.27
2018-04-02T12:59:11.612Z,99937.89
2018-04-02T13:01:39.200Z,99933.75
2018-04-02T13:04:06.842Z,99913.98
2018-04-02T13:06:34.469Z,99909.20
2018-04-02T13:09:02.082Z,99903.50
2018-04-02T13:11:29.748Z,99902.20
2018-04-02T13:13:57.518Z,99899.95
2018-04-02T13:16:25.164Z,99903.31
2018-04-02T13:18:52.770Z,99895.73
2018-04-02T13:21:20.498Z,99890.09
2018-04-02T13:23:48.144Z,99885.39
2018-04-02T13:26:15.848Z,99874.63
2018-04-02T13:28:43.455Z,99871.87
2018-04-02T13:31:11.110Z,99857.18
2018-04-02T13:33:38.708Z,99857.13
2018-04-02T13:36:06.515Z,99848.33
2018-04-02T13:38:34.114Z,99841.46
2018-04-02T13:41:01.806Z,99841.32
2018-04-02T13:43:29.366Z,99833.77
2018-04-02T13:45:57.010Z,99828.09
2018-04-02T13:48:24.706Z,99822.19
2018-04-02T13:50:52.393Z,99817.22
2018-04-02T13:53:20.133Z,99811.44
2018-04-02T13:55:47.794Z,99814.66
2018-04-02T13:58:15.435Z,99806.18
2018-04-02T14:00:43.030Z,99807.12
2018-04-02T14:03:10.642Z,99804.67
2018-04-02T14:05:38.239Z,99800.19
2018-04-02T14:08:05.874Z,99787.84
2018-04-02T14:10:33.460Z,99802.13
2018-04-02T14:13:01.090Z,99784.75
2018-04-02T14:15:28.704Z,99780.92
2018-04-02T14:17:56.347Z,99777.31
2018-04-02T14:20:24.003Z,99773.37
2018-04-02T14:22:51.636Z,99766.19
2018-04-02T14:25:19.251Z,99774.64
2018-04-02T14:27:46.955Z,99771.69
2018-04-02T14:30:14.579Z,99756.99
2018-04-02T14:32:42.202Z,99762.63
2018-04-02T14:35:09.819Z,99751.87
2018-04-02T14:37:37.486Z,99746.45
2018-04-02T14:40:05.074Z,99733.98
2018-04-02T14:42:32.669Z,99731.26
2018-04-02T14:45:00.301Z,99732.20
2018-04-02T14:47:27.885Z,99726.05
2018-04-02T14:49:55.554Z,99720.29
2018-04-02T14:52:23.161Z,99712.21
2018-04-02T14:54:50.877Z,99714.53
2018-04-02T14:57:18.487Z,99709.43
2018-04-02T14:59:46.124Z,99701.81
2018-04-02T15:02:13.726Z,99701.19
2018-04-02T15:04:41.358Z,99699.44
2018-04-02T15:07:08.974Z,99706.28
2018-04-02T15:09:36.624Z,99691.70
2018-04-02T15:12:04.226Z,99692.53
2018-04-02T15:14:31.864Z,99687.97
2018-04-02T15:16:59.536Z,99679.42
2018-04-02T15:19:27.214Z,99681.35
2018-04-02T15:21:54.821Z,99683.00
2018-04-02T15:24:22.451Z,99671.01
2018-04-02T15:26:50.143Z,99682.14
2018-04-02T15:29:17.844Z,99673.34
2018-04-02T15:31:45.388Z,99673.73
2018-04-02T15:34:13.083Z,99666.09
2018-04-02T15:36:40.702Z,99655.74
2018-04-02T15:39:08.367Z,99643.00
2018-04-02T15:41:35.995Z,99633.23
2018-04-02T15:44:03.605Z,99624.08
2018-04-02T15:46:31.228Z,99607.78
2018-04-02T15:49:00.638Z,99611.09
2018-04-02T15:51:28.242Z,99605.19
2018-04-02T15:53:55.846Z,99597.75
2018-04-02T15:56:23.526Z,99595.84
2018-04-02T15:58:51.098Z,99596.34
2018-04-02T16:01:18.851Z,99592.94
2018-04-02T16:03:46.458Z,99593.24
2018-04-02T16:06:14.112Z,99591.18
2018-04-02T16:08:41.816Z,99591.59
2018-04-02T16:11:09.479Z,99588.11
2018-04-02T16:13:37.121Z,99571.00
2018-04-02T16:16:04.727Z,99574.31
2018-04-02T16:18:32.332Z,99574.31
2018-04-02T16:20:59.928Z,99561.83
2018-04-02T16:23:27.550Z,99555.91
2018-04-02T16:25:55.148Z,99544.91
2018-04-02T16:28:22.855Z,99537.77
2018-04-02T16:30:50.476Z,99536.83
2018-04-02T16:33:18.176Z,99533.95
2018-04-02T16:35:45.795Z,99531.58
2018-04-02T16:38:13.427Z,99530.61
2018-04-02T16:40:41.043Z,99531.27
2018-04-02T16:43:08.677Z,99529.98
2018-04-02T16:45:36.288Z,99521.87
2018-04-02T16:48:03.934Z,99524.66
2018-04-02T16:50:31.541Z,99527.09
2018-04-02T16:52:59.218Z,99522.84
2018-04-02T16:55:26.831Z,99520.87
2018-04-02T16:57:54.514Z,99510.52
2018-04-02T17:00:22.158Z,99514.46
2018-04-02T17:02:49.790Z,99510.15
2018-04-02T17:05:17.432Z,99513.05
2018-04-02T17:07:45.025Z,99520.34
2018-04-02T17:10:12.699Z,99512.02
2018-04-02T17:12:40.311Z,99517.31
2018-04-02T17:15:07.983Z,99516.69
2018-04-02T17:17:35.633Z,99525.44
2018-04-02T17:20:03.277Z,99524.44
2018-04-02T17:22:30.900Z,99522.63
2018-04-02T17:24:58.639Z,99526.13
2018-04-02T17:27:26.239Z,99527.26
2018-04-02T17:29:53.881Z,99531.14
2018-04-02T17:32:21.558Z,99530.33
2018-04-02T17:34:49.212Z,99531.79
2018-04-02T17:37:16.848Z,99533.98
2018-04-02T17:39:44.514Z,99543.39
2018-04-02T17:42:12.125Z,99528.28
2018-04-02T17:44:39.710Z,99528.16
2018-04-02T17:47:07.372Z,99533.03
2018-04-02T17:49:35.063Z,99524.20
2018-04-02T17:52:02.686Z,99515.69
2018-04-02T17:54:30.297Z,99521.73
2018-04-02T17:56:57.946Z,99521.35
2018-04-02T17:59:25.567Z,99514.38
2018-04-02T18:01:53.243Z,99503.42
2018-04-02T18:04:20.986Z,99510.56
2018-04-02T18:06:48.617Z,99522.70
2018-04-02T18:09:16.257Z,99514.84
2018-04-02T18:11:43.926Z,99516.61
2018-04-02T18:14:12.255Z,99510.25
2018-04-02T18:16:39.893Z,99512.02
2018-04-02T18:19:07.575Z,99497.86
2018-04-02T18:21:35.254Z,99509.73
2018-04-02T18:24:02.879Z,99512.89
2018-04-02T18:26:30.495Z,99514.94
2018-04-02T18:28:58.182Z,99516.59
2018-04-02T18:31:25.983Z,99514.35
2018-04-02T18:33:53.574Z,99516.24
2018-04-02T18:36:21.196Z,99525.34
2018-04-02T18:38:48.850Z,99524.50
2018-04-02T18:41:16.455Z,99526.97
2018-04-02T18:43:44.099Z,99531.19
2018-04-02T18:46:11.720Z,99522.66
2018-04-02T18:48:39.427Z,99521.63
2018-04-02T18:51:07.063Z,99508.63
2018-04-02T18:53:34.703Z,99512.76
2018-04-02T18:56:02.318Z,99510.77
2018-04-02T18:58:29.946Z,99506.26
2018-04-02T19:00:57.554Z,99506.45
2018-04-02T19:03:25.320Z,99527.83
2018-04-02T19:05:52.927Z,99523.77
2018-04-02T19:08:20.620Z,99512.68
2018-04-02T19:10:48.226Z,99530.94
2018-04-02T19:13:15.825Z,99535.70
2018-04-02T19:15:43.571Z,99532.80
2018-04-02T19:18:11.173Z,99522.13
2018-04-02T19:20:38.846Z,99517.47
2018-04-02T19:23:06.465Z,99509.80
2018-04-02T19:25:34.093Z,99503.59
2018-04-02T19:28:01.849Z,99503.67
2018-04-02T19:30:29.491Z,99499.95
2018-04-02T19:32:57.147Z,99498.58
2018-04-02T19:35:24.805Z,99492.39
2018-04-02T19:37:52.431Z,99498.58
2018-04-02T19:40:20.080Z,99495.38
2018-04-02T19:42:47.720Z,99505.53
2018-04-02T19:45:15.362Z,99501.52
2018-04-02T19:47:42.994Z,99505.13
2018-04-02T19:50:10.646Z,99504.79
2018-04-02T19:52:38.313Z,99499.02
2018-04-02T19:55:05.962Z,99497.43
2018-04-02T19:57:33.571Z,99493.22
2018-04-02T20:00:01.278Z,99488.80
2018-04-02T20:02:28.909Z,99493.41
2018-04-02T20:04:56.587Z,99495.90
2018-04-02T20:07:24.240Z,99491.88
2018-04-02T20:09:52.002Z,99500.06
2018-04-02T20:12:19.660Z,99503.12
2018-04-02T20:14:47.303Z,99503.67
2018-04-02T20:17:14.979Z,99492.11
2018-04-02T20:19:42.576Z,99499.33
2018-04-02T20:22:10.245Z,99502.97
2018-04-02T20:24:37.878Z,99500.25
2018-04-02T20:27:05.527Z,99495.97
2018-04-02T20:29:33.138Z,99494.81
2018-04-02T20:32:00.764Z,99492.21
2018-04-02T20:34:28.419Z,99489.68
2018-04-02T20:36:56.057Z,99493.55
2018-04-02T20:39:23.734Z,99479.86
2018-04-02T20:41:51.355Z,99484.13
2018-04-02T20:44:18.959Z,99487.22
2018-04-02T20:46:46.836Z,99491.46
2018-04-02T20:49:14.436Z,99486.00
2018-04-02T20:51:42.086Z,99481.34
2018-04-02T20:54:09.743Z,99476.36
2018-04-02T20:56:37.314Z,99472.45
2018-04-02T20:59:04.944Z,99459.63
2018-04-02T21:01:32.536Z,99459.24
2018-04-02T21:04:00.204Z,99462.22
2018-04-02T21:06:27.806Z,99456.22
2018-04-02T21:08:55.510Z,99452.58
2018-04-02T21:11:23.127Z,99456.38
2018-04-02T21:13:50.762Z,99452.58
2018-04-02T21:16:18.362Z,99453.63
2018-04-02T21:18:46.007Z,99457.75
2018-04-02T21:21:13.669Z,99457.91
2018-04-02T21:23:41.290Z,99462.77
2018-04-02T21:26:08.927Z,99462.91
2018-04-02T21:28:36.574Z,99463.41
2018-04-02T21:31:04.307Z,99467.27
2018-04-02T21:33:31.950Z,99467.30
2018-04-02T21:35:59.536Z,99467.34
2018-04-02T21:38:27.196Z,99466.28
2018-04-02T21:40:54.830Z,99462.74
2018-04-02T21:43:22.598Z,99459.43
2018-04-02T21:45:50.302Z,99469.70
2018-04-02T21:48:17.918Z,99457.60
2018-04-02T21:50:45.553Z,99458.20
2018-04-02T21:53:13.169Z,99459.80
2018-04-02T21:55:40.804Z,99454.27
2018-04-02T21:58:08.584Z,99455.88
2018-04-02T22:00:36.214Z,99453.08
2018-04-02T22:03:03.912Z,99456.13
2018-04-02T22:05:31.633Z,99460.00
2018-04-02T22:08:10.058Z,99457.44
2018-04-02T22:10:37.708Z,99446.29
2018-04-02T22:13:05.347Z,99450.19
2018-04-02T22:15:32.959Z,99445.88
2018-04-02T22:18:00.559Z,99451.75
2018-04-02T22:20:28.205Z,99445.73
2018-04-02T22:22:55.842Z,99439.04
2018-04-02T22:25:23.473Z,99448.08
2018-04-02T22:27:51.096Z,99448.12
2018-04-02T22:30:18.825Z,99443.84
2018-04-02T22:32:46.410Z,99446.05
2018-04-02T22:35:14.077Z,99452.00
2018-04-02T22:37:41.662Z,99453.56
2018-04-02T22:40:09.299Z,99453.71
2018-04-02T22:42:37.175Z,99456.72
2018-04-02T22:45:04.822Z,99451.33
2018-04-02T22:47:32.426Z,99450.99
2018-04-02T22:50:00.074Z,99455.16
2018-04-02T22:52:27.701Z,99466.91
2018-04-02T22:54:55.378Z,99468.92
2018-04-02T22:57:23.012Z,99477.14
2018-04-02T22:59:50.603Z,99476.67
2018-04-02T23:02:18.237Z,99478.41
2018-04-02T23:04:45.847Z,99481.02
2018-04-02T23:07:13.557Z,99482.50
2018-04-02T23:09:41.203Z,99479.52
2018-04-02T23:12:08.858Z,99485.14
2018-04-02T23:14:36.502Z,99481.12
2018-04-02T23:17:04.139Z,99486.36
2018-04-02T23:19:31.735Z,99492.56
2018-04-02T23:21:59.375Z,99490.89
2018-04-02T23:24:27.028Z,99494.91
2018-04-02T23:26:54.644Z,99494.71
2018-04-02T23:29:22.228Z,99494.48
2018-04-02T23:31:49.878Z,99494.92
2018-04-02T23:34:17.454Z,99479.12
2018-04-02T23:36:45.069Z,99483.03
2018-04-02T23:39:12.892Z,99476.45
2018-04-02T23:41:40.482Z,99479.35
2018-04-02T23:44:08.131Z,99478.75
2018-04-02T23:46:35.711Z,99481.36
2018-04-02T23:49:03.385Z,99476.12
2018-04-02T23:51:31.019Z,99476.20
2018-04-02T23:53:58.685Z,99474.61
2018-04-02T23:56:26.274Z,99483.12
2018-04-02T23:58:53.958Z,99491.63
